Time;durP1;ratioP1;P1;durP2;ratioP2;P2;SDS_P1;SDS_P2;PMS_P1;PMS_P2;Temp;Humidity;BMP_temperature;BMP_pressure;BME280_temperature;BME280_humidity;BME280_pressure;Samples;Min_cycle;Max_cycle;Signal;HPM_P1;HPM_P2
2022/03/19 00:02:20;;;;;;;16.80;6.38;;;8.00;89.00;;;;;;4996818;28;20039;-64
2022/03/19 00:04:46;;;;;;;12.52;4.72;;;8.00;89.70;;;;;;4995661;28;20501;-63
2022/03/19 00:07:12;;;;;;;12.95;5.75;;;7.90;89.90;;;;;;5012208;28;20061;-63
2022/03/19 00:09:39;;;;;;;13.43;5.75;;;7.90;89.60;;;;;;5010753;28;20030;-64
2022/03/19 00:12:05;;;;;;;16.58;5.03;;;7.90;90.00;;;;;;5010619;28;20478;-64
2022/03/19 00:14:30;;;;;;;8.30;4.63;;;7.90;90.00;;;;;;4999882;28;20041;-64
2022/03/19 00:16:57;;;;;;;15.38;6.45;;;7.80;89.60;;;;;;5006219;28;20034;-64
2022/03/19 00:19:23;;;;;;;15.85;4.95;;;7.80;89.80;;;;;;4995386;28;20058;-64
2022/03/19 00:21:48;;;;;;;13.38;6.10;;;7.80;90.10;;;;;;5007542;28;20496;-63
2022/03/19 00:24:14;;;;;;;12.55;4.38;;;7.70;90.00;;;;;;5002788;28;20038;-63
2022/03/19 00:26:39;;;;;;;13.25;4.63;;;7.60;89.80;;;;;;4998131;28;20096;-63
2022/03/19 00:29:05;;;;;;;15.73;4.45;;;7.70;89.70;;;;;;5006049;28;20142;-64
2022/03/19 00:31:30;;;;;;;13.40;4.78;;;7.60;89.60;;;;;;5008252;28;20026;-63
2022/03/19 00:33:56;;;;;;;17.40;4.32;;;7.60;89.70;;;;;;4995003;28;20026;-64
2022/03/19 00:36:21;;;;;;;13.25;4.93;;;7.60;89.50;;;;;;5001623;28;20041;-64
2022/03/19 00:38:48;;;;;;;10.50;4.75;;;7.50;89.40;;;;;;5010848;28;20477;-64
2022/03/19 00:41:13;;;;;;;14.88;4.40;;;7.50;89.80;;;;;;5011037;28;20029;-64
2022/03/19 00:43:39;;;;;;;17.10;4.72;;;7.50;89.70;;;;;;4994573;28;20037;-64
2022/03/19 00:46:04;;;;;;;13.23;5.38;;;7.50;89.50;;;;;;5008580;28;20113;-64
2022/03/19 00:48:30;;;;;;;14.45;4.90;;;7.50;89.50;;;;;;5013884;28;20030;-64
2022/03/19 00:50:55;;;;;;;10.57;4.93;;;7.50;89.70;;;;;;5012117;28;20057;-64
2022/03/19 00:53:21;;;;;;;16.55;6.07;;;7.40;90.00;;;;;;5011988;28;20397;-64
2022/03/19 00:55:46;;;;;;;13.65;5.30;;;7.40;90.30;;;;;;4997510;28;20133;-64
2022/03/19 00:58:12;;;;;;;13.65;5.55;;;7.40;90.50;;;;;;4994673;28;20053;-64
2022/03/19 01:00:38;;;;;;;19.25;5.45;;;7.30;90.30;;;;;;5011298;28;20025;-64
2022/03/19 01:03:04;;;;;;;10.18;4.50;;;7.30;90.70;;;;;;5005049;28;20049;-64
2022/03/19 01:05:30;;;;;;;12.45;4.72;;;7.30;90.50;;;;;;4998445;28;20046;-64
2022/03/19 01:07:56;;;;;;;10.38;4.95;;;7.20;90.70;;;;;;5007168;28;20019;-63
2022/03/19 01:10:28;;;;;;;11.00;4.90;;;7.20;90.70;;;;;;4998126;28;20023;-64
2022/03/19 01:12:56;;;;;;;16.40;5.03;;;7.20;90.50;;;;;;4995207;28;20093;-64
2022/03/19 01:15:22;;;;;;;13.60;5.13;;;7.10;90.50;;;;;;5002810;28;20571;-64
2022/03/19 01:17:48;;;;;;;11.68;4.50;;;7.20;90.60;;;;;;5013653;28;20030;-65
2022/03/19 01:20:15;;;;;;;14.40;5.07;;;7.10;90.50;;;;;;5011705;28;20394;-64
2022/03/19 01:22:43;;;;;;;14.98;5.53;;;7.10;90.90;;;;;;5012799;28;20041;-63
2022/03/19 01:25:10;;;;;;;10.68;4.93;;;7.10;90.90;;;;;;4998728;28;20081;-64
2022/03/19 01:27:38;;;;;;;16.98;5.07;;;7.10;90.80;;;;;;5011805;28;20045;-64
2022/03/19 01:30:06;;;;;;;14.93;5.32;;;7.10;90.70;;;;;;5011319;28;20030;-64
2022/03/19 01:32:32;;;;;;;15.52;4.93;;;7.10;90.70;;;;;;5007885;28;20599;-64
2022/03/19 01:34:58;;;;;;;11.35;4.60;;;7.10;90.70;;;;;;5008631;28;20068;-64
2022/03/19 01:37:24;;;;;;;14.50;5.00;;;7.10;90.60;;;;;;4998666;28;20053;-64
2022/03/19 01:39:53;;;;;;;11.40;4.70;;;7.20;90.70;;;;;;5010897;28;20133;-64
2022/03/19 01:42:24;;;;;;;10.25;4.20;;;7.20;90.60;;;;;;5003099;28;20371;-64
2022/03/19 01:44:50;;;;;;;15.23;5.25;;;7.10;90.50;;;;;;5011265;28;20033;-63
2022/03/19 01:47:15;;;;;;;16.88;5.10;;;7.20;90.50;;;;;;5011169;28;20038;-63
2022/03/19 01:49:41;;;;;;;12.23;5.55;;;7.20;90.50;;;;;;5005729;28;20129;-64
2022/03/19 01:52:07;;;;;;;13.43;4.45;;;7.10;90.40;;;;;;4992858;28;20490;-64
2022/03/19 01:54:39;;;;;;;14.60;6.22;;;7.10;90.40;;;;;;5000629;28;20518;-64
2022/03/19 01:57:05;;;;;;;11.18;4.35;;;7.10;90.50;;;;;;5010361;28;20033;-64
2022/03/19 01:59:34;;;;;;;6.78;4.13;;;7.10;90.50;;;;;;5006529;28;20470;-63
2022/03/19 02:02:05;;;;;;;12.38;5.10;;;7.00;90.60;;;;;;4993520;28;20090;-63
2022/03/19 02:04:33;;;;;;;16.05;6.18;;;7.00;90.60;;;;;;5004483;28;20512;-64
2022/03/19 02:06:59;;;;;;;13.73;4.57;;;7.00;90.70;;;;;;5007446;28;20572;-64
2022/03/19 02:09:25;;;;;;;13.30;5.13;;;7.00;90.60;;;;;;4993258;28;20536;-63
2022/03/19 02:11:51;;;;;;;15.52;5.10;;;7.00;90.70;;;;;;5002312;28;20029;-64
2022/03/19 02:14:17;;;;;;;12.93;4.47;;;7.00;90.70;;;;;;5010247;28;20034;-64
2022/03/19 02:16:43;;;;;;;11.70;5.22;;;7.00;90.80;;;;;;5010744;28;20036;-64
2022/03/19 02:19:10;;;;;;;14.38;4.50;;;6.90;90.80;;;;;;5011313;28;20045;-64
2022/03/19 02:21:42;;;;;;;13.27;4.32;;;6.90;90.90;;;;;;5010211;28;20033;-64
2022/03/19 02:26:53;;;;;;;15.35;4.97;;;7.00;91.00;;;;;;4994669;28;20034;-64
2022/03/19 02:29:19;;;;;;;10.82;4.47;;;6.90;91.10;;;;;;5004939;28;20056;-64
2022/03/19 02:31:47;;;;;;;14.32;4.80;;;6.80;91.10;;;;;;5005676;28;20038;-64
2022/03/19 02:34:12;;;;;;;13.77;5.03;;;6.80;91.30;;;;;;5003304;28;20381;-63
2022/03/19 02:36:41;;;;;;;15.30;5.22;;;6.80;91.20;;;;;;5000801;28;20038;-63
2022/03/19 02:39:16;;;;;;;10.13;4.28;;;6.80;91.40;;;;;;4998432;28;20050;-63
2022/03/19 02:41:47;;;;;;;10.63;4.07;;;6.70;91.40;;;;;;4993950;28;20033;-63
2022/03/19 02:44:15;;;;;;;15.85;6.05;;;6.70;91.40;;;;;;5007525;28;20077;-63
2022/03/19 02:46:47;;;;;;;16.00;4.68;;;6.70;91.40;;;;;;4993588;28;20491;-64
2022/03/19 02:49:13;;;;;;;11.57;5.38;;;6.70;91.60;;;;;;5007888;28;20505;-64
2022/03/19 02:51:41;;;;;;;8.68;4.18;;;6.60;91.60;;;;;;5003028;28;20037;-64
2022/03/19 02:54:08;;;;;;;19.80;6.13;;;6.60;91.50;;;;;;5008225;28;20038;-64
2022/03/19 02:56:36;;;;;;;12.63;4.38;;;6.60;91.50;;;;;;5001729;28;20125;-64
2022/03/19 02:59:06;;;;;;;20.02;6.50;;;6.60;91.50;;;;;;4993316;28;20077;-64
2022/03/19 03:01:32;;;;;;;12.07;4.30;;;6.60;91.60;;;;;;5010118;28;20033;-64
2022/03/19 03:03:57;;;;;;;13.00;5.68;;;6.60;91.60;;;;;;4991832;28;20046;-64
2022/03/19 03:06:24;;;;;;;14.35;4.72;;;6.60;91.70;;;;;;5010736;28;20037;-64
2022/03/19 03:08:49;;;;;;;19.92;6.57;;;6.60;91.80;;;;;;5010471;28;20052;-63
2022/03/19 03:11:15;;;;;;;14.98;4.63;;;6.50;91.70;;;;;;5002202;28;20088;-63
2022/03/19 03:13:40;;;;;;;15.77;4.88;;;6.60;91.80;;;;;;5000568;28;20057;-63
2022/03/19 03:16:06;;;;;;;14.13;4.65;;;6.50;92.10;;;;;;4991950;28;20022;-63
2022/03/19 03:18:31;;;;;;;16.40;5.80;;;6.40;92.20;;;;;;5002501;28;20084;-63
2022/03/19 03:20:59;;;;;;;12.02;4.85;;;6.40;92.40;;;;;;5003003;28;20025;-63
2022/03/19 03:23:26;;;;;;;15.57;5.38;;;6.30;92.40;;;;;;4998885;28;20512;-63
2022/03/19 03:25:52;;;;;;;16.10;6.22;;;6.20;92.40;;;;;;5001886;28;20026;-63
2022/03/19 03:28:17;;;;;;;14.82;6.50;;;6.10;92.90;;;;;;5005183;28;20083;-63
2022/03/19 03:30:43;;;;;;;10.85;5.80;;;6.10;93.10;;;;;;5008943;28;20113;-63
2022/03/19 03:33:08;;;;;;;18.42;5.20;;;6.10;92.80;;;;;;5005876;28;20438;-63
2022/03/19 03:35:33;;;;;;;14.75;5.30;;;6.10;92.70;;;;;;5002978;28;20026;-63
2022/03/19 03:38:00;;;;;;;13.77;4.57;;;6.10;92.90;;;;;;5009770;28;20477;-63
2022/03/19 03:40:25;;;;;;;11.10;4.47;;;6.10;92.80;;;;;;5004213;28;20566;-63
2022/03/19 03:42:51;;;;;;;10.65;4.43;;;6.10;93.20;;;;;;5010330;28;20030;-64
2022/03/19 03:45:16;;;;;;;10.93;4.65;;;6.00;93.10;;;;;;4998466;28;20030;-63
2022/03/19 03:47:42;;;;;;;12.38;4.75;;;6.00;93.20;;;;;;5009223;28;20060;-63
2022/03/19 03:50:08;;;;;;;15.13;5.07;;;6.00;93.30;;;;;;5001687;28;20022;-63
2022/03/19 03:52:34;;;;;;;13.40;5.05;;;5.90;93.30;;;;;;5008774;28;20030;-64
2022/03/19 03:55:00;;;;;;;17.10;4.68;;;5.90;93.50;;;;;;5001098;28;20022;-64
2022/03/19 03:57:26;;;;;;;14.63;5.10;;;5.80;93.30;;;;;;5004557;28;20108;-63
2022/03/19 03:59:52;;;;;;;14.48;4.75;;;5.80;93.50;;;;;;5003195;28;20369;-64
2022/03/19 04:02:18;;;;;;;13.68;4.57;;;5.80;93.60;;;;;;5003445;28;20053;-63
2022/03/19 04:04:43;;;;;;;15.82;5.43;;;5.80;93.60;;;;;;5011102;28;20489;-64
2022/03/19 04:07:09;;;;;;;13.57;4.45;;;5.80;93.50;;;;;;5003816;28;20042;-64
2022/03/19 04:09:35;;;;;;;10.43;4.00;;;5.70;93.60;;;;;;4991488;28;20054;-64
2022/03/19 04:12:03;;;;;;;21.48;5.20;;;5.70;93.90;;;;;;5002022;28;20045;-64
2022/03/19 04:14:29;;;;;;;14.75;4.28;;;5.60;93.90;;;;;;4991212;28;20382;-63
2022/03/19 04:16:54;;;;;;;16.33;4.80;;;5.70;93.90;;;;;;5006382;28;20038;-63
2022/03/19 04:19:20;;;;;;;15.35;4.60;;;5.60;93.80;;;;;;5004167;28;20022;-65
2022/03/19 04:21:45;;;;;;;14.80;4.45;;;5.60;93.80;;;;;;5008127;28;20022;-65
2022/03/19 04:24:11;;;;;;;13.65;4.78;;;5.60;93.90;;;;;;5023615;28;20111;-63
2022/03/19 04:26:36;;;;;;;12.23;4.18;;;5.50;94.00;;;;;;5005553;28;20386;-63
2022/03/19 04:29:02;;;;;;;14.68;5.95;;;5.60;93.90;;;;;;5007481;28;20042;-63
2022/03/19 04:31:28;;;;;;;11.40;4.82;;;5.50;93.90;;;;;;5019843;28;20029;-64
2022/03/19 04:33:53;;;;;;;13.65;4.88;;;5.50;93.90;;;;;;5008448;28;20033;-63
2022/03/19 04:36:32;;;;;;;17.80;5.45;;;5.50;93.80;;;;;;4999174;28;20052;-63
2022/03/19 04:38:59;;;;;;;13.68;4.40;;;5.50;93.90;;;;;;5001280;28;20398;-64
2022/03/19 04:41:25;;;;;;;9.98;4.43;;;5.50;94.10;;;;;;5000395;28;20045;-64
2022/03/19 04:43:51;;;;;;;11.18;5.05;;;5.50;94.00;;;;;;5010685;28;20021;-64
2022/03/19 04:46:16;;;;;;;10.30;4.00;;;5.50;94.00;;;;;;5009475;28;20547;-64
2022/03/19 04:48:45;;;;;;;16.80;4.38;;;5.50;94.00;;;;;;5006531;28;20018;-63
2022/03/19 04:51:16;;;;;;;11.88;4.70;;;5.50;94.00;;;;;;4993588;28;20038;-63
2022/03/19 04:53:49;;;;;;;12.30;4.47;;;5.50;94.00;;;;;;5000873;28;20038;-64
2022/03/19 04:56:15;;;;;;;17.02;4.60;;;5.40;94.20;;;;;;5003598;28;20115;-64
2022/03/19 04:58:40;;;;;;;18.35;5.25;;;5.40;94.20;;;;;;4994302;28;20109;-63
2022/03/19 05:01:06;;;;;;;17.02;4.50;;;5.30;94.30;;;;;;5001257;28;20025;-63
2022/03/19 05:03:31;;;;;;;14.07;4.82;;;5.30;94.20;;;;;;5013676;28;20046;-63
2022/03/19 05:05:57;;;;;;;13.93;5.15;;;5.40;94.20;;;;;;5010332;28;20026;-63
2022/03/19 05:08:22;;;;;;;13.93;5.57;;;5.40;94.20;;;;;;5013614;28;20028;-63
2022/03/19 05:13:32;;;;;;;14.68;4.75;;;5.40;94.30;;;;;;5025121;28;20070;-64
2022/03/19 05:15:58;;;;;;;10.30;3.90;;;5.30;94.30;;;;;;5005939;28;20030;-63
2022/03/19 05:18:23;;;;;;;13.18;5.32;;;5.30;94.30;;;;;;5012412;28;20044;-64
2022/03/19 05:20:49;;;;;;;11.23;4.30;;;5.30;94.40;;;;;;5000370;28;20069;-64
2022/03/19 05:23:14;;;;;;;11.18;4.88;;;5.30;94.30;;;;;;5013143;28;20065;-63
2022/03/19 05:25:40;;;;;;;11.88;5.03;;;5.30;94.50;;;;;;5011581;28;20058;-63
2022/03/19 05:28:06;;;;;;;14.05;4.50;;;5.30;94.40;;;;;;5012053;28;20053;-64
2022/03/19 05:30:31;;;;;;;14.48;4.18;;;5.20;94.70;;;;;;4997218;28;20022;-64
2022/03/19 05:32:58;;;;;;;10.65;4.00;;;5.20;94.50;;;;;;5012127;28;20064;-64
2022/03/19 05:35:24;;;;;;;9.98;4.20;;;5.30;94.50;;;;;;4994675;28;20022;-64
2022/03/19 05:37:50;;;;;;;15.32;4.53;;;5.20;94.50;;;;;;5012312;28;20509;-64
2022/03/19 05:40:16;;;;;;;13.35;4.68;;;5.20;94.50;;;;;;5011385;28;20028;-63
2022/03/19 05:42:41;;;;;;;12.70;4.57;;;5.20;94.70;;;;;;4998059;28;20030;-63
2022/03/19 05:45:10;;;;;;;10.82;4.70;;;5.20;94.70;;;;;;4999013;28;20030;-64
2022/03/19 05:47:39;;;;;;;10.68;4.88;;;5.20;94.70;;;;;;5012125;28;20113;-63
2022/03/19 05:50:05;;;;;;;11.15;4.15;;;5.20;94.80;;;;;;5011813;28;20108;-63
2022/03/19 05:52:31;;;;;;;12.55;3.65;;;5.20;94.70;;;;;;4998913;28;20046;-63
2022/03/19 05:54:56;;;;;;;9.88;3.92;;;5.20;94.80;;;;;;5004345;28;20065;-63
2022/03/19 05:57:22;;;;;;;13.10;4.70;;;5.20;94.70;;;;;;5010373;28;20469;-64
2022/03/19 05:59:47;;;;;;;13.13;4.38;;;5.20;94.70;;;;;;5007837;28;20100;-63
2022/03/19 06:02:13;;;;;;;11.43;4.10;;;5.20;94.80;;;;;;5010637;28;20058;-63
2022/03/19 06:04:39;;;;;;;11.98;3.97;;;5.20;94.90;;;;;;5005498;28;20493;-63
2022/03/19 06:07:05;;;;;;;14.38;4.35;;;5.10;95.00;;;;;;5003135;28;20029;-63
2022/03/19 06:09:30;;;;;;;13.70;4.18;;;5.10;95.10;;;;;;5007537;28;20108;-67
2022/03/19 06:11:56;;;;;;;19.77;4.80;;;5.20;95.00;;;;;;5002169;28;20549;-66
2022/03/19 06:14:22;;;;;;;14.23;4.25;;;5.20;95.10;;;;;;4995397;28;20056;-65
2022/03/19 06:16:49;;;;;;;13.07;3.60;;;5.10;95.20;;;;;;4995959;28;20466;-65
2022/03/19 06:19:15;;;;;;;8.93;4.38;;;5.10;95.30;;;;;;4999620;28;20034;-66
2022/03/19 06:21:42;;;;;;;12.52;4.22;;;5.10;95.60;;;;;;4996021;28;20046;-66
2022/03/19 06:24:09;;;;;;;10.52;4.93;;;5.10;95.70;;;;;;5006467;28;20034;-66
2022/03/19 06:26:35;;;;;;;14.10;4.30;;;5.10;95.50;;;;;;5008862;28;20121;-65
2022/03/19 06:29:01;;;;;;;11.48;3.40;;;5.10;95.60;;;;;;5008634;28;20030;-66
2022/03/19 06:31:26;;;;;;;12.98;4.78;;;5.20;95.60;;;;;;5003950;28;22000;-65
2022/03/19 06:33:52;;;;;;;12.73;3.97;;;5.20;95.80;;;;;;5008846;28;20125;-65
2022/03/19 06:39:01;;;;;;;18.45;5.05;;;5.30;95.50;;;;;;5004663;28;20030;-64
2022/03/19 06:41:27;;;;;;;15.95;4.70;;;5.30;95.60;;;;;;5008362;28;20026;-65
2022/03/19 06:43:53;;;;;;;11.13;3.72;;;5.30;95.60;;;;;;5001145;28;20110;-65
2022/03/19 06:46:19;;;;;;;12.60;3.75;;;5.30;95.80;;;;;;5007581;28;20548;-66
2022/03/19 06:48:46;;;;;;;14.15;4.25;;;5.30;95.60;;;;;;5009737;28;20492;-65
2022/03/19 06:51:12;;;;;;;15.25;3.13;;;5.30;95.90;;;;;;5003511;28;20461;-66
2022/03/19 06:53:38;;;;;;;10.02;3.88;;;5.40;96.10;;;;;;5004708;28;20421;-65
2022/03/19 06:56:05;;;;;;;13.10;4.00;;;5.40;95.90;;;;;;5004643;28;20072;-66
2022/03/19 06:58:32;;;;;;;12.82;5.07;;;5.50;95.70;;;;;;4999702;28;20030;-66
2022/03/19 07:00:57;;;;;;;13.32;4.07;;;5.50;95.80;;;;;;5009436;28;20053;-65
2022/03/19 07:03:23;;;;;;;12.38;3.45;;;5.60;95.90;;;;;;5006347;28;20070;-66
2022/03/19 07:05:49;;;;;;;12.82;3.45;;;5.60;95.70;;;;;;5001846;28;20030;-65
2022/03/19 07:08:15;;;;;;;13.73;3.72;;;5.70;95.60;;;;;;5006643;28;20109;-66
2022/03/19 07:10:40;;;;;;;14.48;5.35;;;5.80;95.50;;;;;;5003275;28;20021;-66
2022/03/19 07:13:06;;;;;;;14.40;3.70;;;5.80;95.60;;;;;;4992763;28;20030;-66
2022/03/19 07:15:32;;;;;;;8.57;3.40;;;5.80;95.60;;;;;;5001994;28;20117;-66
2022/03/19 07:18:02;;;;;;;13.20;3.35;;;5.80;95.70;;;;;;4996560;28;20030;-66
2022/03/19 07:20:30;;;;;;;8.45;3.17;;;5.90;95.60;;;;;;5008843;28;20501;-66
2022/03/19 07:23:01;;;;;;;9.38;2.83;;;5.90;95.60;;;;;;5002069;28;20049;-66
2022/03/19 07:25:32;;;;;;;12.07;4.07;;;5.90;95.60;;;;;;5000808;28;20449;-65
2022/03/19 07:28:01;;;;;;;6.65;2.88;;;5.90;95.70;;;;;;5003804;28;20036;-66
2022/03/19 07:30:27;;;;;;;9.20;3.50;;;6.00;95.70;;;;;;5003171;28;20080;-67
2022/03/19 07:32:52;;;;;;;16.25;3.35;;;6.00;95.60;;;;;;5009740;28;20050;-66
2022/03/19 07:35:18;;;;;;;12.60;2.78;;;6.10;95.70;;;;;;5000034;28;20048;-66
2022/03/19 07:37:44;;;;;;;10.63;3.88;;;6.10;95.70;;;;;;4998685;28;20030;-65
2022/03/19 07:43:06;;;;;;;10.48;3.20;;;6.20;95.60;;;;;;4998418;28;20149;-65
2022/03/19 07:45:33;;;;;;;8.55;3.38;;;6.30;95.60;;;;;;4997353;28;20029;-65
2022/03/19 07:47:59;;;;;;;7.28;3.10;;;6.40;95.50;;;;;;4998364;28;20041;-65
2022/03/19 07:50:25;;;;;;;13.13;3.03;;;6.50;95.50;;;;;;5009538;28;20017;-66
2022/03/19 07:52:50;;;;;;;12.27;3.15;;;6.50;95.10;;;;;;5008466;28;20115;-65
2022/03/19 07:55:16;;;;;;;10.23;3.13;;;6.60;95.10;;;;;;5007788;28;20405;-65
2022/03/19 07:57:42;;;;;;;9.82;3.33;;;6.60;94.90;;;;;;5010158;28;20036;-65
2022/03/19 08:00:09;;;;;;;8.45;2.95;;;6.60;94.90;;;;;;4992258;28;20030;-65
2022/03/19 08:02:35;;;;;;;8.55;3.63;;;6.60;94.90;;;;;;5017294;28;20025;-65
2022/03/19 08:05:03;;;;;;;8.82;2.97;;;6.60;94.80;;;;;;5008109;28;20061;-65
2022/03/19 08:07:29;;;;;;;5.55;2.80;;;6.70;94.80;;;;;;4999194;28;20026;-65
2022/03/19 08:09:54;;;;;;;9.75;3.20;;;6.70;94.80;;;;;;5009558;28;20539;-65
2022/03/19 08:12:20;;;;;;;9.32;3.10;;;6.80;94.80;;;;;;5006712;28;20381;-65
2022/03/19 08:14:45;;;;;;;7.97;2.80;;;6.80;94.70;;;;;;4999821;28;20034;-65
2022/03/19 08:17:11;;;;;;;12.88;3.05;;;6.90;94.50;;;;;;5004915;28;20022;-65
2022/03/19 08:19:37;;;;;;;16.33;3.22;;;6.90;94.40;;;;;;5010107;28;20068;-64
2022/03/19 08:22:03;;;;;;;11.50;2.70;;;7.00;94.30;;;;;;5009670;28;20123;-64
2022/03/19 08:24:28;;;;;;;11.18;3.53;;;7.00;94.30;;;;;;5006936;28;20030;-65
2022/03/19 08:26:54;;;;;;;9.20;2.72;;;7.10;94.20;;;;;;5006611;28;20029;-64
2022/03/19 08:29:23;;;;;;;13.57;4.00;;;7.20;94.20;;;;;;5005871;28;20559;-64
2022/03/19 08:31:50;;;;;;;9.95;3.38;;;7.20;94.00;;;;;;5004451;28;20037;-64
2022/03/19 08:34:15;;;;;;;11.50;3.92;;;7.40;93.70;;;;;;5009742;28;20030;-65
2022/03/19 08:36:41;;;;;;;6.70;2.85;;;7.40;93.70;;;;;;4996541;28;20037;-65
2022/03/19 08:41:50;;;;;;;6.37;2.73;;;7.40;93.30;;;;;;5005436;28;20535;-64
2022/03/19 08:44:16;;;;;;;10.20;3.08;;;7.60;93.40;;;;;;5007245;28;20037;-64
2022/03/19 08:46:41;;;;;;;13.10;4.30;;;7.60;93.10;;;;;;5007949;28;20034;-64
2022/03/19 08:49:07;;;;;;;11.10;2.65;;;7.70;93.00;;;;;;5000151;28;20034;-65
2022/03/19 08:51:42;;;;;;;11.80;4.40;;;7.80;92.90;;;;;;5005510;28;20030;-65
2022/03/19 08:54:11;;;;;;;10.88;2.80;;;7.80;92.60;;;;;;4996384;28;20018;-65
2022/03/19 08:56:37;;;;;;;9.77;3.60;;;7.90;92.60;;;;;;5009374;28;20030;-65
2022/03/19 08:59:03;;;;;;;12.35;3.15;;;8.00;92.70;;;;;;5007913;28;20026;-64
2022/03/19 09:01:30;;;;;;;11.88;2.80;;;8.00;92.80;;;;;;5005834;28;20101;-65
2022/03/19 09:03:55;;;;;;;11.23;2.75;;;8.10;92.70;;;;;;5000821;28;20591;-64
2022/03/19 09:06:21;;;;;;;10.93;2.50;;;8.10;92.40;;;;;;5009243;28;20034;-64
2022/03/19 09:08:48;;;;;;;13.50;3.60;;;8.20;92.20;;;;;;4999200;28;20018;-64
2022/03/19 09:11:17;;;;;;;8.73;3.10;;;8.20;91.90;;;;;;5003190;28;20421;-65
2022/03/19 09:13:43;;;;;;;8.15;2.50;;;8.30;92.10;;;;;;5012813;28;20117;-65
2022/03/19 09:16:08;;;;;;;9.98;2.92;;;8.30;91.70;;;;;;5012193;28;20482;-65
2022/03/19 09:18:34;;;;;;;11.82;2.70;;;8.40;91.70;;;;;;5010960;28;20040;-65
2022/03/19 09:20:59;;;;;;;10.98;3.85;;;8.40;91.70;;;;;;5007975;28;20029;-65
2022/03/19 09:23:25;;;;;;;6.43;2.67;;;8.50;91.60;;;;;;5009325;28;20036;-65
2022/03/19 09:25:50;;;;;;;9.93;3.03;;;8.50;91.70;;;;;;5023448;28;20034;-64
2022/03/19 09:28:16;;;;;;;7.70;2.65;;;8.60;91.50;;;;;;5005709;28;20026;-64
2022/03/19 09:30:42;;;;;;;8.27;2.58;;;8.80;91.40;;;;;;5015697;28;20102;-65
2022/03/19 09:33:08;;;;;;;8.70;2.90;;;8.70;90.90;;;;;;5009800;28;20037;-65
2022/03/19 09:35:35;;;;;;;10.68;3.00;;;8.80;90.70;;;;;;4998488;28;20030;-65
2022/03/19 09:38:00;;;;;;;8.90;3.33;;;8.80;90.40;;;;;;5012709;28;20061;-65
2022/03/19 09:40:26;;;;;;;5.00;2.55;;;8.90;90.20;;;;;;5004057;28;20508;-65
2022/03/19 09:42:54;;;;;;;7.38;2.63;;;8.90;89.90;;;;;;4997895;28;20026;-65
2022/03/19 09:45:21;;;;;;;9.05;3.05;;;8.90;89.70;;;;;;5000915;28;20030;-65
2022/03/19 09:47:49;;;;;;;7.60;2.80;;;9.00;89.40;;;;;;5009277;28;20117;-65
2022/03/19 09:50:15;;;;;;;7.40;2.33;;;9.00;88.50;;;;;;5009238;28;20084;-65
2022/03/19 09:52:42;;;;;;;8.82;2.72;;;9.10;88.90;;;;;;5011356;28;20782;-65
2022/03/19 09:55:13;;;;;;;8.75;2.65;;;9.20;88.30;;;;;;4997471;28;20077;-65
2022/03/19 09:57:39;;;;;;;5.75;2.78;;;9.30;88.20;;;;;;5004270;28;20087;-65
2022/03/19 10:00:05;;;;;;;6.70;2.45;;;9.30;87.90;;;;;;4998521;28;20473;-64
2022/03/19 10:02:31;;;;;;;10.18;2.40;;;9.40;87.80;;;;;;5002910;28;20097;-65
2022/03/19 10:08:35;;;;;;;7.07;2.83;;;9.40;87.90;;;;;;5005396;28;20039;-65
2022/03/19 10:10:33;;;;;;;9.57;3.10;;;9.60;87.60;;;;;;4995166;28;20026;-64
2022/03/19 10:12:59;;;;;;;8.35;3.40;;;9.60;87.10;;;;;;5006461;28;20100;-65
2022/03/19 10:15:27;;;;;;;8.18;3.38;;;9.70;86.80;;;;;;5011300;28;20022;-65
2022/03/19 10:17:59;;;;;;;7.50;3.42;;;9.80;87.30;;;;;;5011231;28;20030;-65
2022/03/19 10:20:25;;;;;;;7.55;2.60;;;9.90;85.80;;;;;;5009244;28;20076;-65
2022/03/19 10:22:50;;;;;;;6.38;3.13;;;9.90;84.10;;;;;;4993974;28;20031;-65
2022/03/19 10:25:19;;;;;;;12.52;3.67;;;10.00;84.30;;;;;;4994496;28;20387;-64
2022/03/19 10:27:45;;;;;;;10.05;3.42;;;10.10;82.90;;;;;;4993481;28;20069;-65
2022/03/19 10:30:16;;;;;;;8.70;3.40;;;10.20;82.70;;;;;;4997882;28;20057;-65
2022/03/19 10:32:46;;;;;;;13.32;6.00;;;10.30;82.60;;;;;;5006247;28;20046;-65
2022/03/19 10:35:35;;;;;;;13.18;4.32;;;10.40;81.70;;;;;;5025357;28;20026;-65
2022/03/19 10:38:15;;;;;;;12.65;4.57;;;10.40;81.30;;;;;;5003780;28;20034;-65
2022/03/19 10:40:43;;;;;;;11.07;3.65;;;10.50;81.30;;;;;;5005591;28;20035;-65
2022/03/19 10:43:10;;;;;;;9.35;3.40;;;10.50;81.30;;;;;;5004280;28;20377;-65
2022/03/19 10:45:44;;;;;;;7.95;2.90;;;10.60;81.10;;;;;;5009117;28;20032;-65
2022/03/19 10:48:12;;;;;;;8.00;2.90;;;10.60;80.50;;;;;;5002684;28;20091;-64
2022/03/19 10:50:40;;;;;;;6.97;2.95;;;10.70;79.50;;;;;;5009387;28;20054;-64
2022/03/19 10:53:06;;;;;;;9.02;3.50;;;10.60;79.60;;;;;;5005503;28;20059;-64
2022/03/19 10:55:32;;;;;;;9.93;4.00;;;10.50;79.90;;;;;;5001357;28;20022;-66
2022/03/19 10:57:57;;;;;;;9.95;3.58;;;10.50;80.50;;;;;;5009378;28;20045;-64
2022/03/19 11:00:23;;;;;;;9.77;4.35;;;10.60;80.70;;;;;;5005682;28;20030;-64
2022/03/19 11:02:49;;;;;;;10.50;4.05;;;10.70;80.60;;;;;;5009118;28;20021;-64
2022/03/19 11:05:18;;;;;;;11.43;4.22;;;10.80;80.50;;;;;;5001674;28;20509;-64
2022/03/19 11:07:46;;;;;;;9.10;4.05;;;10.90;80.60;;;;;;5006335;28;20035;-65
2022/03/19 11:10:12;;;;;;;10.35;4.00;;;11.00;80.10;;;;;;4990414;28;20074;-65
2022/03/19 11:12:42;;;;;;;9.40;3.55;;;11.10;80.20;;;;;;5003994;28;20543;-66
2022/03/19 11:15:09;;;;;;;9.20;3.75;;;11.20;80.10;;;;;;5008266;28;20029;-65
2022/03/19 11:17:38;;;;;;;8.13;3.75;;;11.20;79.20;;;;;;5008956;28;20034;-65
2022/03/19 11:20:14;;;;;;;9.75;4.00;;;11.20;79.30;;;;;;5006062;28;20029;-66
2022/03/19 11:22:43;;;;;;;6.68;3.78;;;11.20;78.80;;;;;;5000676;28;20774;-65
2022/03/19 11:25:22;;;;;;;7.47;3.95;;;11.20;79.00;;;;;;4997846;28;20033;-64
2022/03/19 11:27:50;;;;;;;9.00;3.95;;;11.30;78.60;;;;;;5010440;28;20113;-65
2022/03/19 11:30:21;;;;;;;9.82;4.57;;;11.30;78.60;;;;;;5006497;28;20026;-65
2022/03/19 11:33:17;;;;;;;8.45;4.40;;;11.40;78.20;;;;;;5007805;28;20030;-65
2022/03/19 11:35:45;;;;;;;9.57;4.80;;;11.30;76.60;;;;;;5016409;28;20083;-64
2022/03/19 11:38:21;;;;;;;13.07;4.88;;;11.20;76.40;;;;;;5009564;28;20473;-65
2022/03/19 11:40:54;;;;;;;13.55;5.13;;;11.10;76.90;;;;;;5004958;28;20061;-65
2022/03/19 11:43:32;;;;;;;8.52;4.50;;;11.10;77.50;;;;;;5009998;28;20040;-66
2022/03/19 11:46:12;;;;;;;9.98;4.97;;;11.10;77.50;;;;;;5006105;28;20034;-65
2022/03/19 11:48:46;;;;;;;12.90;7.00;;;11.20;77.80;;;;;;5000951;28;20516;-66
2022/03/19 11:51:15;;;;;;;13.77;6.05;;;11.10;77.80;;;;;;5007208;28;20029;-65
2022/03/19 11:54:16;;;;;;;13.00;5.90;;;11.10;78.20;;;;;;5007904;28;20457;-66
2022/03/19 11:56:42;;;;;;;13.10;7.07;;;11.10;78.10;;;;;;4992026;28;20039;-66
2022/03/19 11:59:35;;;;;;;15.35;7.07;;;11.10;78.50;;;;;;5008329;28;20493;-66
2022/03/19 12:02:01;;;;;;;13.40;6.90;;;11.20;78.60;;;;;;4998296;28;20443;-66
2022/03/19 12:04:47;;;;;;;11.05;6.97;;;11.30;78.90;;;;;;5005666;28;20509;-66
2022/03/19 12:07:32;;;;;;;13.43;7.78;;;11.30;79.10;;;;;;5004154;28;20050;-66
2022/03/19 12:09:59;;;;;;;15.90;7.60;;;11.40;78.90;;;;;;5012644;28;20543;-66
2022/03/19 12:12:26;;;;;;;9.77;6.43;;;11.50;78.80;;;;;;5009967;28;20060;-66
2022/03/19 12:14:52;;;;;;;14.02;6.68;;;11.60;78.20;;;;;;5014054;28;20022;-66
2022/03/19 12:17:27;;;;;;;12.20;7.65;;;11.50;78.50;;;;;;5012280;28;20041;-66
2022/03/19 12:19:54;;;;;;;16.27;6.90;;;11.60;78.20;;;;;;5000532;28;20022;-66
2022/03/19 12:22:34;;;;;;;9.88;5.68;;;11.50;77.70;;;;;;5004888;28;20077;-66
2022/03/19 12:25:13;;;;;;;12.70;6.32;;;11.40;77.50;;;;;;5002438;28;20033;-67
2022/03/19 12:27:40;;;;;;;12.45;7.00;;;11.20;77.60;;;;;;5013145;28;20425;-64
2022/03/19 12:30:08;;;;;;;14.93;7.85;;;11.10;77.90;;;;;;5007981;28;20137;-64
2022/03/19 12:32:54;;;;;;;12.75;6.82;;;10.90;78.20;;;;;;5007625;28;20065;-65
2022/03/19 12:35:26;;;;;;;10.40;6.72;;;10.90;78.60;;;;;;5000012;28;20120;-64
2022/03/19 12:37:54;;;;;;;10.48;6.70;;;10.80;79.10;;;;;;5005562;28;20478;-64
2022/03/19 12:41:23;;;;;;;13.05;6.97;;;10.70;79.30;;;;;;5011797;28;20084;-64
2022/03/19 12:43:16;;;;;;;13.30;8.02;;;10.80;79.40;;;;;;5001779;28;20425;-64
2022/03/19 12:45:50;;;;;;;16.30;8.65;;;10.60;79.70;;;;;;4997129;28;20033;-65
2022/03/19 12:48:16;;;;;;;17.15;9.25;;;10.60;79.70;;;;;;5003202;28;20485;-64
2022/03/19 12:50:53;;;;;;;17.23;10.95;;;10.60;79.10;;;;;;4997393;28;20566;-64
2022/03/19 12:53:40;;;;;;;20.08;12.52;;;10.50;77.60;;;;;;4995987;28;20379;-64
2022/03/19 12:56:19;;;;;;;16.35;11.35;;;10.50;77.40;;;;;;5011347;28;20093;-64
2022/03/19 12:58:53;;;;;;;19.92;12.52;;;10.40;77.60;;;;;;4994289;28;20518;-64
2022/03/19 13:01:21;;;;;;;17.80;12.80;;;10.50;78.40;;;;;;5003585;28;20034;-65
2022/03/19 13:03:56;;;;;;;22.60;11.80;;;10.50;77.90;;;;;;5001560;28;20514;-64
2022/03/19 13:06:28;;;;;;;22.60;11.50;;;10.60;77.90;;;;;;5006728;28;20630;-64
2022/03/19 13:08:55;;;;;;;16.90;11.75;;;10.60;77.00;;;;;;5013470;28;20466;-64